createdAt,value
2022-12-01T00:01:38.568Z,100439.00
2022-12-01T00:04:07.305Z,100430.00
2022-12-01T00:06:36.082Z,100432.00
2022-12-01T00:09:22.989Z,100426.00
2022-12-01T00:11:51.933Z,100432.00
2022-12-01T00:14:22.917Z,100428.00
2022-12-01T00:16:51.620Z,100424.00
2022-12-01T00:19:20.532Z,100436.00
2022-12-01T00:21:49.373Z,100435.00
2022-12-01T00:24:18.072Z,100423.00
2022-12-01T00:26:47.209Z,100412.00
2022-12-01T00:29:16.103Z,100430.00
2022-12-01T00:31:46.277Z,100434.00
2022-12-01T00:34:25.349Z,100422.00
2022-12-01T00:36:54.240Z,100440.00
2022-12-01T00:39:23.026Z,100417.00
2022-12-01T00:41:51.907Z,100429.00
2022-12-01T00:44:20.673Z,100430.00
2022-12-01T00:46:50.823Z,100428.00
2022-12-01T00:49:19.587Z,100437.00
2022-12-01T00:51:48.589Z,100435.00
2022-12-01T00:54:17.445Z,100439.00
2022-12-01T00:56:46.191Z,100447.00
2022-12-01T00:59:15.167Z,100445.00
2022-12-01T01:01:43.396Z,100448.00
2022-12-01T01:04:12.777Z,100449.00
2022-12-01T01:06:43.258Z,100446.00
2022-12-01T01:09:12.229Z,100444.00
2022-12-01T01:11:40.531Z,100452.00
2022-12-01T01:14:09.694Z,100450.00
2022-12-01T01:16:37.804Z,100438.00
2022-12-01T01:19:05.863Z,100447.00
2022-12-01T01:21:35.243Z,100445.00
2022-12-01T01:24:03.492Z,100435.00
2022-12-01T01:26:33.809Z,100434.00
2022-12-01T01:29:06.050Z,100437.00
2022-12-01T01:31:34.633Z,100441.00
2022-12-01T01:34:03.542Z,100439.00
2022-12-01T01:36:31.692Z,100439.00
2022-12-01T01:39:02.617Z,100442.00
2022-12-01T01:41:30.991Z,100445.00
2022-12-01T01:44:01.855Z,100444.00
2022-12-01T01:46:32.435Z,100449.00
2022-12-01T01:49:05.224Z,100455.00
2022-12-01T01:51:40.626Z,100448.00
2022-12-01T01:54:15.873Z,100451.00
2022-12-01T01:56:45.765Z,100434.00
2022-12-01T01:59:18.487Z,100449.00
2022-12-01T02:01:51.869Z,100444.00
2022-12-01T02:04:21.765Z,100435.00
2022-12-01T02:06:49.808Z,100451.00
2022-12-01T02:09:19.426Z,100444.00
2022-12-01T02:12:14.393Z,100449.00
2022-12-01T02:15:14.464Z,100450.00
2022-12-01T02:17:53.316Z,100448.00
2022-12-01T02:21:03.311Z,100464.00
2022-12-01T02:24:38.844Z,100457.00
2022-12-01T02:27:18.621Z,100458.00
2022-12-01T02:30:08.733Z,100439.00
2022-12-01T02:32:51.233Z,100456.00
2022-12-01T02:35:34.138Z,100456.00
2022-12-01T02:38:16.874Z,100455.00
2022-12-01T02:40:53.022Z,100457.00
2022-12-01T02:43:32.054Z,100455.00
2022-12-01T02:46:09.753Z,100461.00
2022-12-01T02:48:44.149Z,100461.00
2022-12-01T02:51:20.465Z,100450.00
2022-12-01T02:53:49.013Z,100453.00
2022-12-01T02:56:22.161Z,100447.00
2022-12-01T02:58:50.529Z,100454.00
2022-12-01T03:01:37.867Z,100449.00
2022-12-01T03:04:44.124Z,100448.00
2022-12-01T03:07:33.109Z,100452.00
2022-12-01T03:10:16.325Z,100449.00
2022-12-01T03:13:00.172Z,100455.00
2022-12-01T03:15:37.401Z,100451.00
2022-12-01T03:18:21.965Z,100455.00
2022-12-01T03:21:00.252Z,100460.00
2022-12-01T03:23:32.985Z,100455.00
2022-12-01T03:26:07.013Z,100446.00
2022-12-01T03:28:42.923Z,100452.00
2022-12-01T03:31:18.309Z,100444.00
2022-12-01T03:33:52.292Z,100446.00
2022-12-01T03:36:29.260Z,100452.00
2022-12-01T03:39:04.586Z,100434.00
2022-12-01T03:41:39.759Z,100453.00
2022-12-01T03:44:14.301Z,100447.00
2022-12-01T03:46:50.144Z,100450.00
2022-12-01T03:49:19.719Z,100449.00
2022-12-01T03:52:03.190Z,100450.00
2022-12-01T03:54:42.996Z,100460.00
2022-12-01T03:57:16.738Z,100468.00
2022-12-01T03:59:47.303Z,100467.00
2022-12-01T04:02:16.436Z,100472.00
2022-12-01T04:04:44.562Z,100471.00
2022-12-01T04:07:14.780Z,100469.00
2022-12-01T04:09:43.118Z,100476.00
2022-12-01T04:12:33.757Z,100466.00
2022-12-01T04:15:06.540Z,100456.00
2022-12-01T04:17:35.388Z,100469.00
2022-12-01T04:20:06.458Z,100462.00
2022-12-01T04:22:35.892Z,100471.00
2022-12-01T04:25:04.377Z,100459.00
2022-12-01T04:27:32.440Z,100464.00
2022-12-01T04:30:00.594Z,100467.00
2022-12-01T04:32:28.687Z,100466.00
2022-12-01T04:34:56.724Z,100460.00
2022-12-01T04:37:24.829Z,100463.00
2022-12-01T04:39:54.198Z,100460.00
2022-12-01T04:42:22.195Z,100467.00
2022-12-01T04:44:50.235Z,100469.00
2022-12-01T04:47:18.258Z,100468.00
2022-12-01T04:49:46.392Z,100453.00
2022-12-01T04:52:14.564Z,100474.00
2022-12-01T04:54:42.592Z,100476.00
2022-12-01T04:57:11.962Z,100474.00
2022-12-01T04:59:40.061Z,100469.00
2022-12-01T05:02:08.224Z,100481.00
2022-12-01T05:04:38.673Z,100480.00
2022-12-01T05:07:07.102Z,100471.00
2022-12-01T05:09:35.228Z,100479.00
2022-12-01T05:12:03.251Z,100481.00
2022-12-01T05:14:32.693Z,100479.00
2022-12-01T05:17:01.855Z,100489.00
2022-12-01T05:19:47.815Z,100484.00
2022-12-01T05:22:15.983Z,100484.00
2022-12-01T05:24:43.964Z,100481.00
2022-12-01T05:27:12.013Z,100489.00
2022-12-01T05:29:41.372Z,100483.00
2022-12-01T05:32:09.808Z,100482.00
2022-12-01T05:34:37.853Z,100477.00
2022-12-01T05:37:06.023Z,100479.00
2022-12-01T05:39:34.083Z,100480.00
2022-12-01T05:42:02.102Z,100491.00
2022-12-01T05:44:30.353Z,100488.00
2022-12-01T05:46:59.752Z,100488.00
2022-12-01T05:49:27.768Z,100488.00
2022-12-01T05:51:55.853Z,100487.00
2022-12-01T05:54:23.897Z,100486.00
2022-12-01T05:56:52.105Z,100476.00
2022-12-01T05:59:20.222Z,100483.00
2022-12-01T06:01:48.330Z,100480.00
2022-12-01T06:04:18.903Z,100483.00
2022-12-01T06:06:47.327Z,100486.00
2022-12-01T06:09:15.391Z,100476.00
2022-12-01T06:11:52.513Z,100487.00
2022-12-01T06:14:21.012Z,100478.00
2022-12-01T06:16:49.293Z,100484.00
2022-12-01T06:19:18.767Z,100498.00
2022-12-01T06:21:47.470Z,100480.00
2022-12-01T06:24:25.354Z,100486.00
2022-12-01T06:26:53.509Z,100497.00
2022-12-01T06:29:22.874Z,100508.00
2022-12-01T06:31:57.003Z,100510.00
2022-12-01T06:34:26.539Z,100518.00
2022-12-01T06:36:54.632Z,100509.00
2022-12-01T06:39:22.738Z,100508.00
2022-12-01T06:41:50.754Z,100515.00
2022-12-01T06:44:18.760Z,100485.00
2022-12-01T06:46:46.767Z,100507.00
2022-12-01T06:49:14.949Z,100511.00
2022-12-01T06:51:44.374Z,100511.00
2022-12-01T06:54:12.773Z,100528.00
2022-12-01T06:56:42.163Z,100527.00
2022-12-01T06:59:10.650Z,100520.00
2022-12-01T07:01:39.317Z,100522.00
2022-12-01T07:04:07.487Z,100528.00
2022-12-01T07:06:35.555Z,100524.00
2022-12-01T07:09:05.144Z,100529.00
2022-12-01T07:11:37.089Z,100533.00
2022-12-01T07:14:05.231Z,100532.00
2022-12-01T07:16:33.304Z,100528.00
2022-12-01T07:19:01.401Z,100533.00
2022-12-01T07:21:29.404Z,100538.00
2022-12-01T07:23:57.418Z,100542.00
2022-12-01T07:26:26.783Z,100545.00
2022-12-01T07:28:54.800Z,100552.00
2022-12-01T07:31:23.023Z,100557.00
2022-12-01T07:33:51.101Z,100543.00
2022-12-01T07:36:19.144Z,100544.00
2022-12-01T07:38:47.184Z,100545.00
2022-12-01T07:41:19.313Z,100547.00
2022-12-01T07:43:50.269Z,100544.00
2022-12-01T07:46:23.058Z,100525.00
2022-12-01T07:48:52.626Z,100547.00
2022-12-01T07:51:21.594Z,100543.00
2022-12-01T07:53:51.965Z,100545.00
2022-12-01T07:56:21.665Z,100558.00
2022-12-01T07:58:51.345Z,100547.00
2022-12-01T08:01:22.207Z,100564.00
2022-12-01T08:03:51.967Z,100544.00
2022-12-01T08:06:21.098Z,100547.00
2022-12-01T08:08:49.685Z,100555.00
2022-12-01T08:11:20.590Z,100548.00
2022-12-01T08:13:51.045Z,100538.00
2022-12-01T08:16:22.773Z,100562.00
2022-12-01T08:18:51.896Z,100563.00
2022-12-01T08:21:22.928Z,100557.00
2022-12-01T08:23:56.761Z,100546.00
2022-12-01T08:26:27.311Z,100543.00
2022-12-01T08:28:57.890Z,100550.00
2022-12-01T08:31:29.413Z,100551.00
2022-12-01T08:33:58.761Z,100552.00
2022-12-01T08:36:27.672Z,100555.00
2022-12-01T08:38:57.795Z,100553.00
2022-12-01T08:41:26.739Z,100543.00
2022-12-01T08:43:58.501Z,100560.00
2022-12-01T08:46:28.335Z,100550.00
2022-12-01T08:48:57.502Z,100559.00
2022-12-01T08:51:28.007Z,100566.00
2022-12-01T08:53:58.353Z,100562.00
2022-12-01T08:56:30.407Z,100568.00
2022-12-01T08:59:00.169Z,100560.00
2022-12-01T09:01:29.146Z,100551.00
2022-12-01T09:04:08.659Z,100563.00
2022-12-01T09:06:42.459Z,100562.00
2022-12-01T09:09:13.195Z,100568.00
2022-12-01T09:11:43.625Z,100562.00
2022-12-01T09:14:14.309Z,100548.00
2022-12-01T09:16:43.145Z,100561.00
2022-12-01T09:19:13.378Z,100555.00
2022-12-01T09:21:42.684Z,100581.00
2022-12-01T09:24:13.423Z,100582.00
2022-12-01T09:26:42.279Z,100576.00
2022-12-01T09:29:15.370Z,100572.00
2022-12-01T09:31:44.235Z,100566.00
2022-12-01T09:34:15.335Z,100555.00
2022-12-01T09:36:43.689Z,100573.00
2022-12-01T09:39:15.673Z,100569.00
2022-12-01T09:41:48.101Z,100561.00
2022-12-01T09:44:31.770Z,100548.00
2022-12-01T09:47:10.641Z,100550.00
2022-12-01T09:49:53.689Z,100537.00
2022-12-01T09:52:24.448Z,100552.00
2022-12-01T09:54:56.096Z,100554.00
2022-12-01T09:57:34.758Z,100540.00
2022-12-01T10:00:14.466Z,100534.00
2022-12-01T10:02:48.420Z,100543.00
2022-12-01T10:05:23.236Z,100548.00
2022-12-01T10:08:01.630Z,100540.00
2022-12-01T10:10:35.695Z,100534.00
2022-12-01T10:13:03.963Z,100541.00
2022-12-01T10:15:44.840Z,100540.00
2022-12-01T10:18:30.667Z,100540.00
2022-12-01T10:21:11.509Z,100525.00
2022-12-01T10:23:57.933Z,100533.00
2022-12-01T10:26:39.042Z,100522.00
2022-12-01T10:29:14.020Z,100530.00
2022-12-01T10:31:55.172Z,100542.00
2022-12-01T10:34:28.140Z,100532.00
2022-12-01T10:36:57.179Z,100537.00
2022-12-01T10:39:32.436Z,100538.00
2022-12-01T10:42:20.175Z,100539.00
2022-12-01T10:44:49.995Z,100513.00
2022-12-01T10:47:23.680Z,100526.00
2022-12-01T10:49:52.863Z,100520.00
2022-12-01T10:52:41.008Z,100519.00
2022-12-01T10:55:28.639Z,100521.00
2022-12-01T10:58:06.147Z,100528.00
2022-12-01T11:03:34.078Z,100524.00
2022-12-01T11:06:10.747Z,100529.00
2022-12-01T11:08:44.399Z,100530.00
2022-12-01T11:11:29.390Z,100521.00
2022-12-01T11:14:00.808Z,100529.00
2022-12-01T11:16:45.027Z,100511.00
2022-12-01T11:19:29.471Z,100518.00
2022-12-01T11:22:00.267Z,100514.00
2022-12-01T11:24:43.690Z,100515.00
2022-12-01T11:27:19.289Z,100511.00
2022-12-01T11:29:50.912Z,100513.00
2022-12-01T11:32:24.966Z,100511.00
2022-12-01T11:35:00.111Z,100513.00
2022-12-01T11:37:37.055Z,100505.00
2022-12-01T11:40:17.900Z,100505.00
2022-12-01T11:42:51.693Z,100508.00
2022-12-01T11:45:32.164Z,100503.00
2022-12-01T11:48:06.051Z,100503.00
2022-12-01T11:50:39.568Z,100483.00
2022-12-01T11:53:29.643Z,100511.00
2022-12-01T11:56:23.243Z,100509.00
2022-12-01T11:59:00.093Z,100513.00
2022-12-01T12:01:42.985Z,100503.00
2022-12-01T12:04:48.893Z,100501.00
2022-12-01T12:07:32.416Z,100501.00
2022-12-01T12:10:31.125Z,100493.00
2022-12-01T12:13:51.627Z,100502.00
2022-12-01T12:16:42.780Z,100480.00
2022-12-01T12:20:00.047Z,100498.00
2022-12-01T12:22:38.110Z,100499.00
2022-12-01T12:25:28.415Z,100477.00
2022-12-01T12:28:25.081Z,100490.00
2022-12-01T12:31:11.351Z,100477.00
2022-12-01T12:34:19.175Z,100477.00
2022-12-01T12:37:08.211Z,100485.00
2022-12-01T12:40:18.576Z,100484.00
2022-12-01T12:43:03.799Z,100483.00
2022-12-01T12:45:53.942Z,100483.00
2022-12-01T12:48:38.709Z,100476.00
2022-12-01T12:51:28.396Z,100470.00
2022-12-01T12:54:10.192Z,100486.00
2022-12-01T12:56:44.387Z,100479.00
2022-12-01T12:59:20.643Z,100476.00
2022-12-01T13:01:58.662Z,100483.00
2022-12-01T13:04:41.796Z,100477.00
2022-12-01T13:07:33.743Z,100470.00
2022-12-01T13:10:11.153Z,100451.00
2022-12-01T13:12:49.901Z,100480.00
2022-12-01T13:15:21.499Z,100477.00
2022-12-01T13:17:54.412Z,100477.00
2022-12-01T13:20:28.761Z,100470.00
2022-12-01T13:22:59.702Z,100480.00
2022-12-01T13:25:33.758Z,100477.00
2022-12-01T13:28:08.000Z,100480.00
2022-12-01T13:30:36.707Z,100482.00
2022-12-01T13:33:07.237Z,100475.00
2022-12-01T13:35:38.688Z,100481.00
2022-12-01T13:38:25.049Z,100454.00
2022-12-01T13:41:23.488Z,100457.00
2022-12-01T13:44:05.190Z,100476.00
2022-12-01T13:46:53.599Z,100464.00
2022-12-01T13:49:42.431Z,100480.00
2022-12-01T13:52:31.394Z,100478.00
2022-12-01T13:55:30.320Z,100476.00
2022-12-01T13:58:39.439Z,100463.00
2022-12-01T14:02:07.452Z,100460.00
2022-12-01T14:04:37.177Z,100469.00
2022-12-01T14:07:34.874Z,100472.00
2022-12-01T14:10:30.928Z,100465.00
2022-12-01T14:13:04.823Z,100457.00
2022-12-01T14:15:42.298Z,100476.00
2022-12-01T14:18:36.532Z,100465.00
2022-12-01T14:21:09.395Z,100468.00
2022-12-01T14:23:41.262Z,100477.00
2022-12-01T14:26:17.717Z,100470.00
2022-12-01T14:29:30.046Z,100470.00
2022-12-01T14:32:24.061Z,100469.00
2022-12-01T14:35:07.028Z,100457.00
2022-12-01T14:37:44.479Z,100460.00
2022-12-01T14:40:24.734Z,100463.00
2022-12-01T14:43:16.225Z,100460.00
2022-12-01T14:46:02.470Z,100469.00
2022-12-01T14:48:40.058Z,100471.00
2022-12-01T14:51:23.362Z,100465.00
2022-12-01T14:53:53.538Z,100471.00
2022-12-01T14:56:26.244Z,100475.00
2022-12-01T14:58:57.749Z,100464.00
2022-12-01T15:01:33.267Z,100467.00
2022-12-01T15:04:05.795Z,100457.00
2022-12-01T15:06:38.561Z,100457.00
2022-12-01T15:12:03.147Z,100461.00
2022-12-01T15:14:34.796Z,100467.00
2022-12-01T15:17:05.626Z,100449.00
2022-12-01T15:19:38.135Z,100454.00
2022-12-01T15:22:15.796Z,100454.00
2022-12-01T15:24:45.140Z,100457.00
2022-12-01T15:27:29.790Z,100458.00
2022-12-01T15:30:03.315Z,100457.00
2022-12-01T15:32:33.770Z,100450.00
2022-12-01T15:35:04.643Z,100457.00
2022-12-01T15:37:44.413Z,100460.00
2022-12-01T15:41:06.127Z,100470.00
2022-12-01T15:43:15.616Z,100459.00
2022-12-01T15:45:53.778Z,100465.00
2022-12-01T15:48:31.675Z,100469.00
2022-12-01T15:51:15.535Z,100443.00
2022-12-01T15:53:53.747Z,100456.00
2022-12-01T15:56:29.625Z,100466.00
2022-12-01T15:59:07.780Z,100459.00
2022-12-01T16:01:37.470Z,100441.00
2022-12-01T16:04:13.866Z,100464.00
2022-12-01T16:06:43.111Z,100459.00
2022-12-01T16:09:26.708Z,100448.00
2022-12-01T16:12:24.205Z,100458.00
2022-12-01T16:14:57.575Z,100454.00
2022-12-01T16:17:27.177Z,100452.00
2022-12-01T16:20:21.458Z,100461.00
2022-12-01T16:22:56.532Z,100463.00
2022-12-01T16:25:34.873Z,100460.00
2022-12-01T16:28:04.684Z,100464.00
2022-12-01T16:30:39.324Z,100461.00
2022-12-01T16:33:16.866Z,100462.00
2022-12-01T16:35:45.072Z,100467.00
2022-12-01T16:38:20.328Z,100467.00
2022-12-01T16:40:52.015Z,100466.00
2022-12-01T16:43:23.236Z,100460.00
2022-12-01T16:46:00.187Z,100471.00
2022-12-01T16:48:28.569Z,100470.00
2022-12-01T16:50:58.137Z,100476.00
2022-12-01T16:53:26.209Z,100481.00
2022-12-01T16:55:57.994Z,100481.00
2022-12-01T16:58:26.185Z,100471.00
2022-12-01T17:00:54.884Z,100472.00
2022-12-01T17:03:25.442Z,100456.00
2022-12-01T17:05:54.911Z,100474.00
2022-12-01T17:08:23.596Z,100470.00
2022-12-01T17:10:53.287Z,100474.00
2022-12-01T17:13:24.337Z,100468.00
2022-12-01T17:15:56.024Z,100484.00
2022-12-01T17:18:25.306Z,100480.00
2022-12-01T17:21:01.314Z,100480.00
2022-12-01T17:23:30.188Z,100478.00
2022-12-01T17:25:58.309Z,100475.00
2022-12-01T17:28:28.144Z,100475.00
2022-12-01T17:31:01.020Z,100475.00
2022-12-01T17:33:29.225Z,100471.00
2022-12-01T17:36:02.045Z,100468.00
2022-12-01T17:38:30.347Z,100474.00
2022-12-01T17:41:07.221Z,100472.00
2022-12-01T17:43:38.492Z,100456.00
2022-12-01T17:46:09.238Z,100468.00
2022-12-01T17:48:38.734Z,100472.00
2022-12-01T17:51:08.893Z,100469.00
2022-12-01T17:53:39.301Z,100474.00
2022-12-01T17:56:09.280Z,100478.00
2022-12-01T17:58:39.414Z,100470.00
2022-12-01T18:01:29.806Z,100476.00
2022-12-01T18:03:59.248Z,100482.00
2022-12-01T18:06:27.977Z,100477.00
2022-12-01T18:08:58.869Z,100470.00
2022-12-01T18:11:27.417Z,100484.00
2022-12-01T18:13:56.856Z,100478.00
2022-12-01T18:16:27.760Z,100476.00
2022-12-01T18:18:58.060Z,100476.00
2022-12-01T18:21:27.482Z,100489.00
2022-12-01T18:23:59.114Z,100480.00
2022-12-01T18:26:29.241Z,100477.00
2022-12-01T18:29:01.183Z,100478.00
2022-12-01T18:31:30.919Z,100484.00
2022-12-01T18:34:02.624Z,100455.00
2022-12-01T18:36:34.476Z,100482.00
2022-12-01T18:39:04.725Z,100483.00
2022-12-01T18:41:32.804Z,100482.00
2022-12-01T18:44:02.353Z,100485.00
2022-12-01T18:46:30.959Z,100483.00
2022-12-01T18:49:02.025Z,100480.00
2022-12-01T18:51:31.735Z,100484.00
2022-12-01T18:54:02.308Z,100478.00
2022-12-01T18:56:31.533Z,100476.00
2022-12-01T18:59:05.997Z,100478.00
2022-12-01T19:01:38.189Z,100473.00
2022-12-01T19:04:07.842Z,100477.00
2022-12-01T19:06:38.727Z,100480.00
2022-12-01T19:09:09.895Z,100450.00
2022-12-01T19:11:40.453Z,100478.00
2022-12-01T19:14:16.467Z,100466.00
2022-12-01T19:16:44.801Z,100471.00
2022-12-01T19:19:12.892Z,100470.00
2022-12-01T19:21:42.725Z,100470.00
2022-12-01T19:24:10.874Z,100464.00
2022-12-01T19:26:39.090Z,100463.00
2022-12-01T19:29:07.362Z,100467.00
2022-12-01T19:31:36.815Z,100466.00
2022-12-01T19:34:05.338Z,100466.00
2022-12-01T19:36:33.558Z,100451.00
2022-12-01T19:39:05.891Z,100464.00
2022-12-01T19:41:38.490Z,100466.00
2022-12-01T19:44:06.889Z,100462.00
2022-12-01T19:46:36.411Z,100467.00
2022-12-01T19:49:06.682Z,100472.00
2022-12-01T19:51:38.179Z,100466.00
2022-12-01T19:54:08.980Z,100463.00
2022-12-01T19:56:37.189Z,100456.00
2022-12-01T19:59:07.815Z,100455.00
2022-12-01T20:01:37.276Z,100461.00
2022-12-01T20:04:06.717Z,100460.00
2022-12-01T20:06:37.768Z,100459.00
2022-12-01T20:09:08.232Z,100460.00
2022-12-01T20:11:37.450Z,100445.00
2022-12-01T20:14:08.047Z,100452.00
2022-12-01T20:16:37.921Z,100453.00
2022-12-01T20:19:07.467Z,100456.00
2022-12-01T20:21:42.289Z,100456.00
2022-12-01T20:24:14.311Z,100453.00
2022-12-01T20:26:46.136Z,100453.00
2022-12-01T20:29:17.976Z,100444.00
2022-12-01T20:31:49.081Z,100440.00
2022-12-01T20:34:20.460Z,100443.00
2022-12-01T20:36:49.460Z,100431.00
2022-12-01T20:39:18.068Z,100438.00
2022-12-01T20:41:46.659Z,100444.00
2022-12-01T20:44:17.017Z,100442.00
2022-12-01T20:46:47.536Z,100435.00
2022-12-01T20:49:18.292Z,100432.00
2022-12-01T20:51:47.302Z,100438.00
2022-12-01T20:54:32.977Z,100412.00
2022-12-01T20:57:01.378Z,100436.00
2022-12-01T20:59:30.426Z,100433.00
2022-12-01T21:02:00.024Z,100434.00
2022-12-01T21:04:28.430Z,100429.00
2022-12-01T21:06:57.479Z,100439.00
2022-12-01T21:09:26.242Z,100441.00
2022-12-01T21:12:12.626Z,100432.00
2022-12-01T21:14:49.202Z,100439.00
2022-12-01T21:17:34.347Z,100428.00
2022-12-01T21:20:17.976Z,100424.00
2022-12-01T21:22:47.222Z,100419.00
2022-12-01T21:25:22.267Z,100427.00
2022-12-01T21:27:51.204Z,100428.00
2022-12-01T21:30:24.974Z,100421.00
2022-12-01T21:32:55.731Z,100429.00
2022-12-01T21:35:25.954Z,100437.00
2022-12-01T21:38:02.471Z,100434.00
2022-12-01T21:40:31.380Z,100421.00
2022-12-01T21:43:16.258Z,100432.00
2022-12-01T21:45:44.381Z,100430.00
2022-12-01T21:48:18.266Z,100439.00
2022-12-01T21:50:53.621Z,100411.00
2022-12-01T21:53:23.018Z,100434.00
2022-12-01T21:55:51.071Z,100427.00
2022-12-01T21:58:34.330Z,100430.00
2022-12-01T22:01:03.806Z,100431.00
2022-12-01T22:03:38.973Z,100427.00
2022-12-01T22:06:31.755Z,100429.00
2022-12-01T22:09:11.584Z,100421.00
2022-12-01T22:11:39.705Z,100415.00
2022-12-01T22:14:16.931Z,100415.00
2022-12-01T22:16:48.069Z,100411.00
2022-12-01T22:19:30.275Z,100412.00
2022-12-01T22:22:15.823Z,100397.00
2022-12-01T22:24:47.478Z,100407.00
2022-12-01T22:27:28.022Z,100389.00
2022-12-01T22:30:01.153Z,100412.00
2022-12-01T22:32:53.185Z,100404.00
2022-12-01T22:35:30.915Z,100402.00
2022-12-01T22:38:19.238Z,100402.00
2022-12-01T22:40:57.175Z,100406.00
2022-12-01T22:43:46.268Z,100401.00
2022-12-01T22:46:29.668Z,100400.00
2022-12-01T22:49:00.339Z,100402.00
2022-12-01T22:51:47.897Z,100401.00
2022-12-01T22:54:40.362Z,100395.00
2022-12-01T22:57:28.334Z,100397.00
2022-12-01T22:59:56.970Z,100399.00
2022-12-01T23:02:35.298Z,100380.00
2022-12-01T23:05:22.576Z,100388.00
2022-12-01T23:07:53.205Z,100386.00
2022-12-01T23:10:24.486Z,100386.00
2022-12-01T23:12:55.680Z,100397.00
2022-12-01T23:15:32.321Z,100384.00
2022-12-01T23:18:12.598Z,100382.00
2022-12-01T23:20:43.347Z,100366.00
2022-12-01T23:23:17.455Z,100380.00
2022-12-01T23:25:47.869Z,100373.00
2022-12-01T23:28:16.558Z,100365.00
2022-12-01T23:30:46.949Z,100368.00
2022-12-01T23:33:20.235Z,100374.00
2022-12-01T23:35:54.623Z,100369.00
2022-12-01T23:38:27.040Z,100371.00
2022-12-01T23:40:59.852Z,100378.00
2022-12-01T23:43:30.800Z,100360.00
2022-12-01T23:46:07.462Z,100361.00
2022-12-01T23:48:41.826Z,100356.00
2022-12-01T23:51:19.636Z,100361.00
2022-12-01T23:53:49.964Z,100354.00
2022-12-01T23:56:22.101Z,100356.00
2022-12-01T23:58:51.021Z,100353.00
